sensor_id;sensor_type;location;lat;lon;timestamp;pressure;altitude;pressure_sealevel;temperature;humidity
42247;BME280;27913;42.722;23.268;2023-12-29T00:02:07;95377.31;;;0.95;100.00
42247;BME280;27913;42.722;23.268;2023-12-29T00:04:33;95637.03;;;2.49;100.00
42247;BME280;27913;42.722;23.268;2023-12-29T00:06:59;95462.03;;;1.40;100.00
42247;BME280;27913;42.722;23.268;2023-12-29T00:09:24;95490.16;;;1.68;100.00
42247;BME280;27913;42.722;23.268;2023-12-29T00:11:51;95600.31;;;2.42;100.00
42247;BME280;27913;42.722;23.268;2023-12-29T00:14:17;95539.03;;;2.07;100.00
42247;BME280;27913;42.722;23.268;2023-12-29T00:16:42;95627.69;;;2.58;100.00
42247;BME280;27913;42.722;23.268;2023-12-29T00:19:09;95612.69;;;2.50;100.00
42247;BME280;27913;42.722;23.268;2023-12-29T00:21:36;95543.88;;;2.12;100.00
42247;BME280;27913;42.722;23.268;2023-12-29T00:24:02;95706.09;;;2.96;100.00
42247;BME280;27913;42.722;23.268;2023-12-29T00:26:28;95606.13;;;2.35;100.00
42247;BME280;27913;42.722;23.268;2023-12-29T00:28:54;95622.03;;;2.53;100.00
42247;BME280;27913;42.722;23.268;2023-12-29T00:31:20;95693.69;;;3.00;100.00
42247;BME280;27913;42.722;23.268;2023-12-29T00:33:46;95687.28;;;3.04;99.65
42247;BME280;27913;42.722;23.268;2023-12-29T00:36:19;95691.56;;;3.05;100.00
42247;BME280;27913;42.722;23.268;2023-12-29T00:38:46;95682.34;;;3.01;99.33
42247;BME280;27913;42.722;23.268;2023-12-29T00:41:11;95693.81;;;2.98;99.07
42247;BME280;27913;42.722;23.268;2023-12-29T00:43:37;95681.75;;;2.97;98.77
42247;BME280;27913;42.722;23.268;2023-12-29T00:46:04;95299.75;;;0.36;98.11
42247;BME280;27913;42.722;23.268;2023-12-29T00:48:30;95699.63;;;2.90;98.75
42247;BME280;27913;42.722;23.268;2023-12-29T00:50:56;95687.72;;;2.88;99.85
42247;BME280;27913;42.722;23.268;2023-12-29T00:53:21;95551.09;;;1.97;99.67
42247;BME280;27913;42.722;23.268;2023-12-29T00:55:47;95434.69;;;1.25;99.84
42247;BME280;27913;42.722;23.268;2023-12-29T00:58:13;95691.34;;;2.85;99.44
42247;BME280;27913;42.722;23.268;2023-12-29T01:03:23;95517.38;;;1.85;100.00
42247;BME280;27913;42.722;23.268;2023-12-29T01:05:48;95466.03;;;1.33;100.00
42247;BME280;27913;42.722;23.268;2023-12-29T01:08:14;95399.94;;;0.93;100.00
42247;BME280;27913;42.722;23.268;2023-12-29T01:10:39;95412.06;;;1.04;100.00
42247;BME280;27913;42.722;23.268;2023-12-29T01:13:05;95682.06;;;2.71;100.00
42247;BME280;27913;42.722;23.268;2023-12-29T01:15:31;95686.31;;;2.72;100.00
42247;BME280;27913;42.722;23.268;2023-12-29T01:17:56;95696.13;;;2.69;100.00
42247;BME280;27913;42.722;23.268;2023-12-29T01:20:22;95688.22;;;2.70;100.00
42247;BME280;27913;42.722;23.268;2023-12-29T01:22:47;95684.53;;;2.73;100.00
42247;BME280;27913;42.722;23.268;2023-12-29T01:25:13;95687.59;;;2.78;100.00
42247;BME280;27913;42.722;23.268;2023-12-29T01:27:39;95693.53;;;2.69;100.00
42247;BME280;27913;42.722;23.268;2023-12-29T01:30:05;95648.59;;;2.22;100.00
42247;BME280;27913;42.722;23.268;2023-12-29T01:32:30;95693.91;;;2.41;100.00
42247;BME280;27913;42.722;23.268;2023-12-29T01:34:56;95709.94;;;2.12;100.00
42247;BME280;27913;42.722;23.268;2023-12-29T01:37:22;95330.41;;;-0.54;100.00
42247;BME280;27913;42.722;23.268;2023-12-29T01:39:47;95703.88;;;1.77;100.00
42247;BME280;27913;42.722;23.268;2023-12-29T01:42:13;95688.09;;;1.80;100.00
42247;BME280;27913;42.722;23.268;2023-12-29T01:44:38;95682.06;;;1.79;100.00
42247;BME280;27913;42.722;23.268;2023-12-29T01:47:13;95689.03;;;1.90;100.00
42247;BME280;27913;42.722;23.268;2023-12-29T01:49:41;95618.50;;;1.51;100.00
42247;BME280;27913;42.722;23.268;2023-12-29T01:52:09;95503.75;;;0.90;100.00
42247;BME280;27913;42.722;23.268;2023-12-29T01:54:35;95659.34;;;2.06;100.00
42247;BME280;27913;42.722;23.268;2023-12-29T01:57:03;95277.41;;;-0.24;100.00
42247;BME280;27913;42.722;23.268;2023-12-29T01:59:29;95678.47;;;2.28;100.00
42247;BME280;27913;42.722;23.268;2023-12-29T02:01:56;95458.00;;;1.02;100.00
42247;BME280;27913;42.722;23.268;2023-12-29T02:04:26;95668.19;;;2.38;100.00
42247;BME280;27913;42.722;23.268;2023-12-29T02:06:52;95667.25;;;2.39;100.00
42247;BME280;27913;42.722;23.268;2023-12-29T02:09:18;95396.75;;;0.66;100.00
42247;BME280;27913;42.722;23.268;2023-12-29T02:11:44;95316.63;;;0.06;100.00
42247;BME280;27913;42.722;23.268;2023-12-29T02:14:10;95652.16;;;2.21;100.00
42247;BME280;27913;42.722;23.268;2023-12-29T02:17:31;95643.50;;;2.32;100.00
42247;BME280;27913;42.722;23.268;2023-12-29T02:19:41;95605.78;;;2.16;100.00
42247;BME280;27913;42.722;23.268;2023-12-29T02:22:10;95574.91;;;1.90;100.00
42247;BME280;27913;42.722;23.268;2023-12-29T02:24:37;95497.47;;;1.51;100.00
42247;BME280;27913;42.722;23.268;2023-12-29T02:32:39;95637.16;;;2.36;100.00
42247;BME280;27913;42.722;23.268;2023-12-29T02:35:09;95503.81;;;1.59;100.00
42247;BME280;27913;42.722;23.268;2023-12-29T02:37:37;95638.31;;;2.44;100.00
42247;BME280;27913;42.722;23.268;2023-12-29T02:40:04;95644.56;;;2.41;100.00
42247;BME280;27913;42.722;23.268;2023-12-29T02:42:29;95482.16;;;1.48;99.11
42247;BME280;27913;42.722;23.268;2023-12-29T02:44:55;95632.91;;;2.35;99.64
42247;BME280;27913;42.722;23.268;2023-12-29T02:47:20;95621.09;;;2.31;99.75
42247;BME280;27913;42.722;23.268;2023-12-29T02:49:47;95632.66;;;2.27;100.00
42247;BME280;27913;42.722;23.268;2023-12-29T02:52:13;95624.06;;;2.26;100.00
42247;BME280;27913;42.722;23.268;2023-12-29T02:54:39;95485.69;;;1.36;100.00
42247;BME280;27913;42.722;23.268;2023-12-29T02:57:04;95620.41;;;2.17;100.00
42247;BME280;27913;42.722;23.268;2023-12-29T02:59:30;95608.97;;;2.09;100.00
42247;BME280;27913;42.722;23.268;2023-12-29T03:01:56;95615.81;;;2.21;99.52
42247;BME280;27913;42.722;23.268;2023-12-29T03:04:21;95608.84;;;2.22;99.26
42247;BME280;27913;42.722;23.268;2023-12-29T03:06:47;95410.19;;;1.06;100.00
42247;BME280;27913;42.722;23.268;2023-12-29T03:09:13;95391.25;;;0.82;100.00
42247;BME280;27913;42.722;23.268;2023-12-29T03:11:39;95609.09;;;2.19;100.00
42247;BME280;27913;42.722;23.268;2023-12-29T03:14:05;95608.41;;;2.05;100.00
42247;BME280;27913;42.722;23.268;2023-12-29T03:16:30;95222.53;;;-0.39;99.86
42247;BME280;27913;42.722;23.268;2023-12-29T03:18:56;95605.44;;;1.75;100.00
42247;BME280;27913;42.722;23.268;2023-12-29T03:21:21;95616.38;;;1.67;100.00
42247;BME280;27913;42.722;23.268;2023-12-29T03:23:47;95614.72;;;1.55;99.80
42247;BME280;27913;42.722;23.268;2023-12-29T03:26:13;95580.06;;;1.33;99.43
42247;BME280;27913;42.722;23.268;2023-12-29T03:28:38;95249.53;;;-0.68;99.98
42247;BME280;27913;42.722;23.268;2023-12-29T03:31:04;95596.69;;;1.53;99.77
42247;BME280;27913;42.722;23.268;2023-12-29T03:33:31;95585.03;;;1.59;99.52
42247;BME280;27913;42.722;23.268;2023-12-29T03:35:56;95420.88;;;0.67;100.00
42247;BME280;27913;42.722;23.268;2023-12-29T03:38:22;95514.88;;;1.15;100.00
42247;BME280;27913;42.722;23.268;2023-12-29T03:40:48;95360.97;;;0.13;100.00
42247;BME280;27913;42.722;23.268;2023-12-29T03:43:14;95612.13;;;1.43;100.00
42247;BME280;27913;42.722;23.268;2023-12-29T03:45:39;95487.47;;;0.65;100.00
42247;BME280;27913;42.722;23.268;2023-12-29T03:48:05;95608.09;;;1.39;100.00
42247;BME280;27913;42.722;23.268;2023-12-29T03:50:31;95212.69;;;-1.19;100.00
42247;BME280;27913;42.722;23.268;2023-12-29T03:52:56;95616.34;;;1.33;100.00
42247;BME280;27913;42.722;23.268;2023-12-29T03:55:22;95532.59;;;0.85;100.00
42247;BME280;27913;42.722;23.268;2023-12-29T03:57:47;95613.75;;;1.33;100.00
42247;BME280;27913;42.722;23.268;2023-12-29T04:00:14;95305.06;;;-0.74;100.00
42247;BME280;27913;42.722;23.268;2023-12-29T04:02:40;95603.47;;;1.20;100.00
42247;BME280;27913;42.722;23.268;2023-12-29T04:05:07;95600.03;;;1.08;100.00
42247;BME280;27913;42.722;23.268;2023-12-29T04:07:33;95619.53;;;1.01;100.00
42247;BME280;27913;42.722;23.268;2023-12-29T04:09:59;95605.94;;;0.86;100.00
42247;BME280;27913;42.722;23.268;2023-12-29T04:12:25;95609.38;;;0.86;100.00
42247;BME280;27913;42.722;23.268;2023-12-29T04:14:51;95517.72;;;0.40;100.00
42247;BME280;27913;42.722;23.268;2023-12-29T04:17:16;95558.69;;;0.70;100.00
42247;BME280;27913;42.722;23.268;2023-12-29T04:19:42;95604.78;;;0.90;100.00
42247;BME280;27913;42.722;23.268;2023-12-29T04:22:08;95604.41;;;0.83;100.00
42247;BME280;27913;42.722;23.268;2023-12-29T04:24:34;95270.81;;;-1.13;100.00
42247;BME280;27913;42.722;23.268;2023-12-29T04:26:59;95536.91;;;0.73;100.00
42247;BME280;27913;42.722;23.268;2023-12-29T04:29:25;95597.06;;;1.13;100.00
42247;BME280;27913;42.722;23.268;2023-12-29T04:31:51;95350.38;;;-0.32;100.00
42247;BME280;27913;42.722;23.268;2023-12-29T04:34:16;95610.91;;;1.25;100.00
42247;BME280;27913;42.722;23.268;2023-12-29T04:36:42;95609.06;;;1.02;100.00
42247;BME280;27913;42.722;23.268;2023-12-29T04:39:07;95500.72;;;0.48;99.37
42247;BME280;27913;42.722;23.268;2023-12-29T04:41:36;95613.63;;;0.99;99.14
42247;BME280;27913;42.722;23.268;2023-12-29T04:44:02;95246.81;;;-1.53;98.61
42247;BME280;27913;42.722;23.268;2023-12-29T04:46:27;95621.50;;;0.61;99.10
42247;BME280;27913;42.722;23.268;2023-12-29T04:48:53;95344.09;;;-1.16;99.74
42247;BME280;27913;42.722;23.268;2023-12-29T04:51:19;95349.19;;;-1.14;100.00
42247;BME280;27913;42.722;23.268;2023-12-29T04:53:46;95302.63;;;-1.26;100.00
42247;BME280;27913;42.722;23.268;2023-12-29T04:56:11;95447.44;;;-0.28;100.00
42247;BME280;27913;42.722;23.268;2023-12-29T04:58:37;95600.81;;;0.48;100.00
42247;BME280;27913;42.722;23.268;2023-12-29T05:01:03;95600.19;;;0.57;100.00
42247;BME280;27913;42.722;23.268;2023-12-29T05:03:29;95594.28;;;0.55;100.00
42247;BME280;27913;42.722;23.268;2023-12-29T05:05:55;95532.97;;;0.07;100.00
42247;BME280;27913;42.722;23.268;2023-12-29T05:08:21;95593.72;;;0.39;99.92
42247;BME280;27913;42.722;23.268;2023-12-29T05:10:46;95595.72;;;0.35;99.52
42247;BME280;27913;42.722;23.268;2023-12-29T05:13:12;95613.34;;;0.17;99.43
42247;BME280;27913;42.722;23.268;2023-12-29T05:15:38;95610.19;;;-0.13;99.68
42247;BME280;27913;42.722;23.268;2023-12-29T05:18:03;95605.44;;;-0.45;100.00
42247;BME280;27913;42.722;23.268;2023-12-29T05:20:29;95607.50;;;-0.90;100.00
42247;BME280;27913;42.722;23.268;2023-12-29T05:22:55;95458.00;;;-1.87;100.00
42247;BME280;27913;42.722;23.268;2023-12-29T05:25:21;95614.69;;;-1.08;100.00
42247;BME280;27913;42.722;23.268;2023-12-29T05:27:48;95601.19;;;-0.99;100.00
42247;BME280;27913;42.722;23.268;2023-12-29T05:30:14;95578.66;;;-1.10;100.00
42247;BME280;27913;42.722;23.268;2023-12-29T05:32:40;95596.97;;;-0.87;100.00
42247;BME280;27913;42.722;23.268;2023-12-29T05:35:05;95596.97;;;-0.74;100.00
42247;BME280;27913;42.722;23.268;2023-12-29T05:37:31;95593.88;;;-0.66;100.00
42247;BME280;27913;42.722;23.268;2023-12-29T05:39:57;95418.47;;;-1.60;100.00
42247;BME280;27913;42.722;23.268;2023-12-29T05:42:23;95599.25;;;-0.43;100.00
42247;BME280;27913;42.722;23.268;2023-12-29T05:44:48;95609.78;;;-0.33;100.00
42247;BME280;27913;42.722;23.268;2023-12-29T05:47:17;95514.09;;;-0.83;100.00
42247;BME280;27913;42.722;23.268;2023-12-29T05:49:43;95607.22;;;-0.20;100.00
42247;BME280;27913;42.722;23.268;2023-12-29T05:52:08;95418.88;;;-1.14;100.00
42247;BME280;27913;42.722;23.268;2023-12-29T05:54:34;95449.34;;;-0.93;100.00
42247;BME280;27913;42.722;23.268;2023-12-29T05:57:00;95399.06;;;-1.40;100.00
42247;BME280;27913;42.722;23.268;2023-12-29T05:59:26;95594.13;;;-0.05;100.00
42247;BME280;27913;42.722;23.268;2023-12-29T06:01:51;95591.88;;;-0.10;100.00
42247;BME280;27913;42.722;23.268;2023-12-29T06:04:17;95602.66;;;-0.16;100.00
42247;BME280;27913;42.722;23.268;2023-12-29T06:06:43;95441.91;;;-1.11;100.00
42247;BME280;27913;42.722;23.268;2023-12-29T06:09:11;95364.06;;;-1.83;100.00
42247;BME280;27913;42.722;23.268;2023-12-29T06:11:37;95277.84;;;-2.46;100.00
42247;BME280;27913;42.722;23.268;2023-12-29T06:14:03;95602.66;;;-0.55;100.00
42247;BME280;27913;42.722;23.268;2023-12-29T06:16:29;95599.25;;;-0.56;100.00
42247;BME280;27913;42.722;23.268;2023-12-29T06:18:56;95592.53;;;-0.45;100.00
42247;BME280;27913;42.722;23.268;2023-12-29T06:21:21;95608.97;;;-0.33;100.00
42247;BME280;27913;42.722;23.268;2023-12-29T06:23:48;95489.41;;;-1.27;100.00
42247;BME280;27913;42.722;23.268;2023-12-29T06:26:17;95539.69;;;-1.06;100.00
42247;BME280;27913;42.722;23.268;2023-12-29T06:28:43;95617.13;;;-0.66;100.00
42247;BME280;27913;42.722;23.268;2023-12-29T06:31:09;95612.06;;;-0.54;100.00
42247;BME280;27913;42.722;23.268;2023-12-29T06:33:35;95259.47;;;-2.67;100.00
42247;BME280;27913;42.722;23.268;2023-12-29T06:36:01;95218.13;;;-2.79;100.00
42247;BME280;27913;42.722;23.268;2023-12-29T06:38:27;95613.91;;;-0.17;100.00
42247;BME280;27913;42.722;23.268;2023-12-29T06:40:52;95605.41;;;-0.06;100.00
42247;BME280;27913;42.722;23.268;2023-12-29T06:43:18;95256.22;;;-2.30;100.00
42247;BME280;27913;42.722;23.268;2023-12-29T06:45:44;95561.72;;;-0.49;100.00
42247;BME280;27913;42.722;23.268;2023-12-29T06:48:09;95621.38;;;-0.26;100.00
42247;BME280;27913;42.722;23.268;2023-12-29T06:50:35;95603.47;;;-0.16;100.00
42247;BME280;27913;42.722;23.268;2023-12-29T06:53:02;95326.50;;;-1.74;100.00
42247;BME280;27913;42.722;23.268;2023-12-29T06:55:28;95204.59;;;-2.41;100.00
42247;BME280;27913;42.722;23.268;2023-12-29T06:57:54;95583.91;;;-0.07;100.00
42247;BME280;27913;42.722;23.268;2023-12-29T07:00:20;95619.69;;;-0.01;100.00
42247;BME280;27913;42.722;23.268;2023-12-29T07:02:45;95605.69;;;0.15;100.00
42247;BME280;27913;42.722;23.268;2023-12-29T07:05:11;95611.75;;;0.27;100.00
42247;BME280;27913;42.722;23.268;2023-12-29T07:07:36;95615.44;;;0.11;100.00
42247;BME280;27913;42.722;23.268;2023-12-29T07:10:03;95283.91;;;-2.06;100.00
42247;BME280;27913;42.722;23.268;2023-12-29T07:12:29;95452.22;;;-0.85;100.00
42247;BME280;27913;42.722;23.268;2023-12-29T07:14:55;95157.69;;;-2.73;100.00
42247;BME280;27913;42.722;23.268;2023-12-29T07:17:20;95312.28;;;-1.80;100.00
42247;BME280;27913;42.722;23.268;2023-12-29T07:19:46;95605.88;;;0.25;100.00
42247;BME280;27913;42.722;23.268;2023-12-29T07:22:11;95451.44;;;-0.48;100.00
42247;BME280;27913;42.722;23.268;2023-12-29T07:24:37;95575.44;;;0.53;100.00
42247;BME280;27913;42.722;23.268;2023-12-29T07:27:03;95582.09;;;0.69;100.00
42247;BME280;27913;42.722;23.268;2023-12-29T07:29:29;95586.34;;;0.70;100.00
42247;BME280;27913;42.722;23.268;2023-12-29T07:31:54;95441.00;;;-0.22;100.00
42247;BME280;27913;42.722;23.268;2023-12-29T07:34:20;95596.53;;;0.60;100.00
42247;BME280;27913;42.722;23.268;2023-12-29T07:36:46;95594.50;;;0.52;100.00
42247;BME280;27913;42.722;23.268;2023-12-29T07:39:12;95374.41;;;-0.80;100.00
42247;BME280;27913;42.722;23.268;2023-12-29T07:41:41;95232.03;;;-1.88;100.00
42247;BME280;27913;42.722;23.268;2023-12-29T07:44:11;95523.84;;;-0.23;100.00
42247;BME280;27913;42.722;23.268;2023-12-29T07:46:38;95599.78;;;0.13;100.00
42247;BME280;27913;42.722;23.268;2023-12-29T07:49:04;95608.13;;;-0.08;100.00
42247;BME280;27913;42.722;23.268;2023-12-29T07:51:29;95593.97;;;-0.28;100.00
42247;BME280;27913;42.722;23.268;2023-12-29T07:53:55;95614.75;;;-0.30;100.00
42247;BME280;27913;42.722;23.268;2023-12-29T07:56:21;95600.47;;;-0.22;100.00
42247;BME280;27913;42.722;23.268;2023-12-29T07:58:46;95510.06;;;-0.75;100.00
42247;BME280;27913;42.722;23.268;2023-12-29T08:01:12;95598.78;;;-0.10;100.00
42247;BME280;27913;42.722;23.268;2023-12-29T08:03:38;95603.88;;;-0.09;100.00
42247;BME280;27913;42.722;23.268;2023-12-29T08:06:03;95612.84;;;-0.02;100.00
42247;BME280;27913;42.722;23.268;2023-12-29T08:08:29;95590.53;;;-0.03;100.00
42247;BME280;27913;42.722;23.268;2023-12-29T08:10:54;95616.19;;;0.38;100.00
42247;BME280;27913;42.722;23.268;2023-12-29T08:13:21;95600.53;;;0.15;100.00
42247;BME280;27913;42.722;23.268;2023-12-29T08:15:47;95287.28;;;-1.66;100.00
42247;BME280;27913;42.722;23.268;2023-12-29T08:18:12;95611.25;;;0.35;100.00
42247;BME280;27913;42.722;23.268;2023-12-29T08:20:38;95467.13;;;-0.38;100.00
42247;BME280;27913;42.722;23.268;2023-12-29T08:23:04;95619.50;;;0.40;100.00
42247;BME280;27913;42.722;23.268;2023-12-29T08:25:29;95370.34;;;-1.35;100.00
42247;BME280;27913;42.722;23.268;2023-12-29T08:27:58;95610.22;;;0.25;100.00
42247;BME280;27913;42.722;23.268;2023-12-29T08:30:24;95466.53;;;-0.55;100.00
42247;BME280;27913;42.722;23.268;2023-12-29T08:32:49;95352.91;;;-1.18;100.00
42247;BME280;27913;42.722;23.268;2023-12-29T08:35:15;95576.34;;;0.03;100.00
42247;BME280;27913;42.722;23.268;2023-12-29T08:37:40;95461.69;;;-0.59;100.00
42247;BME280;27913;42.722;23.268;2023-12-29T08:40:06;95608.19;;;0.41;100.00
42247;BME280;27913;42.722;23.268;2023-12-29T08:42:33;95596.09;;;0.42;100.00
42247;BME280;27913;42.722;23.268;2023-12-29T08:44:59;95597.69;;;0.56;100.00
42247;BME280;27913;42.722;23.268;2023-12-29T08:47:25;95601.78;;;0.71;100.00
42247;BME280;27913;42.722;23.268;2023-12-29T08:49:50;95591.19;;;0.75;100.00
42247;BME280;27913;42.722;23.268;2023-12-29T08:52:16;95234.75;;;-1.39;100.00
42247;BME280;27913;42.722;23.268;2023-12-29T08:54:42;95607.31;;;1.03;100.00
42247;BME280;27913;42.722;23.268;2023-12-29T08:57:08;95451.94;;;0.31;100.00
42247;BME280;27913;42.722;23.268;2023-12-29T08:59:33;95606.31;;;1.28;100.00
42247;BME280;27913;42.722;23.268;2023-12-29T09:01:59;95595.25;;;1.26;100.00
42247;BME280;27913;42.722;23.268;2023-12-29T09:04:25;95614.13;;;1.40;100.00
42247;BME280;27913;42.722;23.268;2023-12-29T09:06:52;95604.34;;;1.43;100.00
42247;BME280;27913;42.722;23.268;2023-12-29T09:09:18;95229.28;;;-0.86;100.00
42247;BME280;27913;42.722;23.268;2023-12-29T09:11:44;95599.75;;;1.59;100.00
42247;BME280;27913;42.722;23.268;2023-12-29T09:14:10;95532.34;;;1.36;100.00
42247;BME280;27913;42.722;23.268;2023-12-29T09:16:35;95586.59;;;1.96;100.00
42247;BME280;27913;42.722;23.268;2023-12-29T09:19:01;95593.38;;;2.20;100.00
42247;BME280;27913;42.722;23.268;2023-12-29T09:21:27;95589.91;;;2.42;100.00
42247;BME280;27913;42.722;23.268;2023-12-29T09:23:53;95185.78;;;0.15;100.00
42247;BME280;27913;42.722;23.268;2023-12-29T09:26:18;95337.50;;;1.30;100.00
42247;BME280;27913;42.722;23.268;2023-12-29T09:28:44;95212.56;;;0.71;100.00
42247;BME280;27913;42.722;23.268;2023-12-29T09:31:12;95566.66;;;3.07;100.00
42247;BME280;27913;42.722;23.268;2023-12-29T09:33:38;95345.91;;;1.67;100.00
42247;BME280;27913;42.722;23.268;2023-12-29T09:36:04;95487.19;;;2.61;100.00
42247;BME280;27913;42.722;23.268;2023-12-29T09:38:30;95567.63;;;3.27;100.00
42247;BME280;27913;42.722;23.268;2023-12-29T09:40:59;95278.56;;;1.44;100.00
42247;BME280;27913;42.722;23.268;2023-12-29T09:43:26;95573.97;;;3.34;100.00
42247;BME280;27913;42.722;23.268;2023-12-29T09:45:53;95175.09;;;0.87;100.00
42247;BME280;27913;42.722;23.268;2023-12-29T09:48:22;95478.25;;;2.75;100.00
42247;BME280;27913;42.722;23.268;2023-12-29T09:50:51;95553.56;;;3.30;100.00
42247;BME280;27913;42.722;23.268;2023-12-29T09:53:20;95518.78;;;3.09;100.00
42247;BME280;27913;42.722;23.268;2023-12-29T09:55:51;95417.56;;;2.55;100.00
42247;BME280;27913;42.722;23.268;2023-12-29T09:58:21;95548.81;;;3.45;100.00
42247;BME280;27913;42.722;23.268;2023-12-29T10:00:49;95416.72;;;2.76;100.00
42247;BME280;27913;42.722;23.268;2023-12-29T10:03:15;95546.53;;;3.52;100.00
42247;BME280;27913;42.722;23.268;2023-12-29T10:05:41;95390.53;;;2.58;100.00
42247;BME280;27913;42.722;23.268;2023-12-29T10:08:07;95538.72;;;3.52;100.00
42247;BME280;27913;42.722;23.268;2023-12-29T10:10:35;95442.00;;;2.95;100.00
42247;BME280;27913;42.722;23.268;2023-12-29T10:13:03;95530.34;;;3.48;100.00
42247;BME280;27913;42.722;23.268;2023-12-29T10:15:42;95482.09;;;3.24;100.00
42247;BME280;27913;42.722;23.268;2023-12-29T10:18:37;95488.03;;;3.36;100.00
42247;BME280;27913;42.722;23.268;2023-12-29T10:21:29;95497.75;;;3.65;100.00
42247;BME280;27913;42.722;23.268;2023-12-29T10:24:17;95460.47;;;3.55;100.00
42247;BME280;27913;42.722;23.268;2023-12-29T10:26:43;95385.31;;;3.10;100.00
42247;BME280;27913;42.722;23.268;2023-12-29T10:29:11;95496.59;;;3.99;100.00
42247;BME280;27913;42.722;23.268;2023-12-29T10:31:38;95491.13;;;4.12;100.00
42247;BME280;27913;42.722;23.268;2023-12-29T10:34:23;95469.09;;;4.26;100.00
42247;BME280;27913;42.722;23.268;2023-12-29T10:36:54;95188.13;;;2.56;100.00
42247;BME280;27913;42.722;23.268;2023-12-29T10:39:19;95478.97;;;4.52;100.00
42247;BME280;27913;42.722;23.268;2023-12-29T10:41:45;95469.91;;;4.66;100.00
42247;BME280;27913;42.722;23.268;2023-12-29T10:44:11;95087.34;;;2.40;100.00
42247;BME280;27913;42.722;23.268;2023-12-29T10:46:36;95478.66;;;4.85;100.00
42247;BME280;27913;42.722;23.268;2023-12-29T10:49:12;95457.81;;;4.95;100.00
42247;BME280;27913;42.722;23.268;2023-12-29T10:51:39;95078.09;;;2.77;100.00
42247;BME280;27913;42.722;23.268;2023-12-29T10:54:05;95454.19;;;5.16;100.00
42247;BME280;27913;42.722;23.268;2023-12-29T10:56:32;95312.69;;;4.47;100.00
42247;BME280;27913;42.722;23.268;2023-12-29T10:59:05;95442.34;;;5.31;100.00
42247;BME280;27913;42.722;23.268;2023-12-29T11:01:32;95433.81;;;5.39;100.00
42247;BME280;27913;42.722;23.268;2023-12-29T11:04:04;95423.75;;;5.44;100.00
42247;BME280;27913;42.722;23.268;2023-12-29T11:06:40;95429.78;;;5.45;100.00
42247;BME280;27913;42.722;23.268;2023-12-29T11:09:05;95292.59;;;4.68;100.00
42247;BME280;27913;42.722;23.268;2023-12-29T11:11:31;95349.88;;;5.16;99.98
42247;BME280;27913;42.722;23.268;2023-12-29T11:13:57;95099.31;;;3.70;99.43
42247;BME280;27913;42.722;23.268;2023-12-29T11:16:24;95269.38;;;4.85;99.14
42247;BME280;27913;42.722;23.268;2023-12-29T11:18:56;95339.06;;;5.39;98.50
42247;BME280;27913;42.722;23.268;2023-12-29T11:21:21;95288.13;;;5.16;98.46
42247;BME280;27913;42.722;23.268;2023-12-29T11:23:48;95333.78;;;5.49;98.10
42247;BME280;27913;42.722;23.268;2023-12-29T11:26:15;95416.53;;;6.03;97.49
42247;BME280;27913;42.722;23.268;2023-12-29T11:28:40;95108.19;;;4.15;96.81
42247;BME280;27913;42.722;23.268;2023-12-29T11:31:06;95411.31;;;6.03;97.24
42247;BME280;27913;42.722;23.268;2023-12-29T11:33:40;95406.81;;;6.05;97.38
42247;BME280;27913;42.722;23.268;2023-12-29T11:36:17;95290.09;;;5.51;97.16
42247;BME280;27913;42.722;23.268;2023-12-29T11:41:22;95336.06;;;5.98;96.77
42247;BME280;27913;42.722;23.268;2023-12-29T11:43:57;95309.50;;;5.85;96.44
42247;BME280;27913;42.722;23.268;2023-12-29T11:46:36;95392.78;;;6.43;96.23
42247;BME280;27913;42.722;23.268;2023-12-29T11:49:02;95391.56;;;6.55;95.89
42247;BME280;27913;42.722;23.268;2023-12-29T11:51:39;95027.06;;;4.38;95.29
42247;BME280;27913;42.722;23.268;2023-12-29T11:54:05;95391.97;;;6.69;95.35
42247;BME280;27913;42.722;23.268;2023-12-29T11:56:36;95263.47;;;6.02;94.81
42247;BME280;27913;42.722;23.268;2023-12-29T11:59:24;95369.06;;;6.89;94.82
42247;BME280;27913;42.722;23.268;2023-12-29T12:01:52;95098.69;;;5.25;93.85
42247;BME280;27913;42.722;23.268;2023-12-29T12:04:40;95362.06;;;6.98;94.09
42247;BME280;27913;42.722;23.268;2023-12-29T12:12:45;95030.97;;;5.15;91.72
42247;BME280;27913;42.722;23.268;2023-12-29T12:17:56;95005.25;;;5.20;90.88
42247;BME280;27913;42.722;23.268;2023-12-29T12:20:22;95060.13;;;5.64;90.44
42247;BME280;27913;42.722;23.268;2023-12-29T12:22:58;95357.59;;;7.60;90.39
42247;BME280;27913;42.722;23.268;2023-12-29T12:25:30;95260.28;;;7.05;90.01
42247;BME280;27913;42.722;23.268;2023-12-29T12:28:01;95232.16;;;7.07;88.33
42247;BME280;27913;42.722;23.268;2023-12-29T12:30:33;95365.00;;;7.98;88.00
42247;BME280;27913;42.722;23.268;2023-12-29T12:33:03;95372.25;;;8.04;87.51
42247;BME280;27913;42.722;23.268;2023-12-29T12:35:29;95374.38;;;8.17;87.14
42247;BME280;27913;42.722;23.268;2023-12-29T12:40:37;95358.34;;;8.29;86.82
42247;BME280;27913;42.722;23.268;2023-12-29T12:43:03;95370.31;;;8.40;86.16
42247;BME280;27913;42.722;23.268;2023-12-29T12:45:33;95362.59;;;8.46;86.18
42247;BME280;27913;42.722;23.268;2023-12-29T12:48:02;95206.25;;;7.55;85.65
42247;BME280;27913;42.722;23.268;2023-12-29T12:50:34;95358.19;;;8.64;85.29
42247;BME280;27913;42.722;23.268;2023-12-29T12:53:00;95229.16;;;7.87;85.43
42247;BME280;27913;42.722;23.268;2023-12-29T12:55:32;95020.66;;;6.70;85.22
42247;BME280;27913;42.722;23.268;2023-12-29T12:58:00;95074.13;;;7.18;84.79
42247;BME280;27913;42.722;23.268;2023-12-29T13:00:26;95176.13;;;7.84;84.46
42247;BME280;27913;42.722;23.268;2023-12-29T13:02:52;95121.66;;;7.63;84.08
42247;BME280;27913;42.722;23.268;2023-12-29T13:05:18;95363.13;;;9.24;84.42
42247;BME280;27913;42.722;23.268;2023-12-29T13:07:44;95361.47;;;9.31;83.69
42247;BME280;27913;42.722;23.268;2023-12-29T13:10:09;95052.81;;;7.54;83.29
42247;BME280;27913;42.722;23.268;2023-12-29T13:12:35;95362.22;;;9.48;82.89